sensor_id;sensor_type;location;lat;lon;timestamp;P1;durP1;ratioP1;P2;durP2;ratioP2
48627;SDS011;34424;52.234;6.500;2023-03-01T00:02:58;14.32;;;9.48;;
48627;SDS011;34424;52.234;6.500;2023-03-01T00:08:00;13.80;;;10.68;;
48627;SDS011;34424;52.234;6.500;2023-03-01T00:13:03;14.35;;;10.25;;
48627;SDS011;34424;52.234;6.500;2023-03-01T00:18:07;14.35;;;11.05;;
48627;SDS011;34424;52.234;6.500;2023-03-01T00:23:10;15.50;;;10.40;;
48627;SDS011;34424;52.234;6.500;2023-03-01T00:28:12;17.20;;;11.82;;
48627;SDS011;34424;52.234;6.500;2023-03-01T00:33:17;15.13;;;11.23;;
48627;SDS011;34424;52.234;6.500;2023-03-01T00:38:20;14.02;;;10.73;;
48627;SDS011;34424;52.234;6.500;2023-03-01T00:43:23;15.43;;;12.20;;
48627;SDS011;34424;52.234;6.500;2023-03-01T00:48:27;15.73;;;11.18;;
48627;SDS011;34424;52.234;6.500;2023-03-01T00:53:29;16.20;;;11.57;;
48627;SDS011;34424;52.234;6.500;2023-03-01T00:58:32;14.07;;;10.68;;
48627;SDS011;34424;52.234;6.500;2023-03-01T01:03:37;15.13;;;11.23;;
48627;SDS011;34424;52.234;6.500;2023-03-01T01:08:39;18.55;;;11.68;;
48627;SDS011;34424;52.234;6.500;2023-03-01T01:13:43;18.07;;;10.70;;
48627;SDS011;34424;52.234;6.500;2023-03-01T01:18:49;15.82;;;11.13;;
48627;SDS011;34424;52.234;6.500;2023-03-01T01:23:51;18.00;;;10.57;;
48627;SDS011;34424;52.234;6.500;2023-03-01T01:28:55;14.25;;;10.30;;
48627;SDS011;34424;52.234;6.500;2023-03-01T01:34:00;17.08;;;11.95;;
48627;SDS011;34424;52.234;6.500;2023-03-01T01:39:04;15.50;;;11.25;;
48627;SDS011;34424;52.234;6.500;2023-03-01T01:44:11;14.63;;;10.23;;
48627;SDS011;34424;52.234;6.500;2023-03-01T01:49:22;15.75;;;10.88;;
48627;SDS011;34424;52.234;6.500;2023-03-01T01:54:27;12.68;;;9.43;;
48627;SDS011;34424;52.234;6.500;2023-03-01T01:59:35;17.70;;;10.02;;
48627;SDS011;34424;52.234;6.500;2023-03-01T02:09:45;15.37;;;9.93;;
48627;SDS011;34424;52.234;6.500;2023-03-01T02:14:49;14.98;;;10.93;;
48627;SDS011;34424;52.234;6.500;2023-03-01T02:19:57;15.73;;;10.43;;
48627;SDS011;34424;52.234;6.500;2023-03-01T02:25:12;15.10;;;9.73;;
48627;SDS011;34424;52.234;6.500;2023-03-01T02:30:29;14.77;;;10.10;;
48627;SDS011;34424;52.234;6.500;2023-03-01T02:35:35;14.40;;;10.25;;
48627;SDS011;34424;52.234;6.500;2023-03-01T02:40:40;14.90;;;10.80;;
48627;SDS011;34424;52.234;6.500;2023-03-01T02:45:49;14.98;;;10.70;;
48627;SDS011;34424;52.234;6.500;2023-03-01T02:50:56;16.67;;;10.95;;
48627;SDS011;34424;52.234;6.500;2023-03-01T02:56:06;18.70;;;10.80;;
48627;SDS011;34424;52.234;6.500;2023-03-01T03:01:15;16.40;;;11.73;;
48627;SDS011;34424;52.234;6.500;2023-03-01T03:06:18;15.73;;;11.73;;
48627;SDS011;34424;52.234;6.500;2023-03-01T03:11:20;15.67;;;11.73;;
48627;SDS011;34424;52.234;6.500;2023-03-01T03:16:24;19.37;;;12.63;;
48627;SDS011;34424;52.234;6.500;2023-03-01T03:21:27;15.50;;;10.10;;
48627;SDS011;34424;52.234;6.500;2023-03-01T03:26:30;16.17;;;10.57;;
48627;SDS011;34424;52.234;6.500;2023-03-01T03:31:35;15.82;;;11.23;;
48627;SDS011;34424;52.234;6.500;2023-03-01T03:36:38;15.85;;;11.65;;
48627;SDS011;34424;52.234;6.500;2023-03-01T03:41:41;19.55;;;11.82;;
48627;SDS011;34424;52.234;6.500;2023-03-01T03:46:45;17.23;;;11.23;;
48627;SDS011;34424;52.234;6.500;2023-03-01T03:51:47;15.55;;;11.77;;
48627;SDS011;34424;52.234;6.500;2023-03-01T03:56:50;19.03;;;12.07;;
48627;SDS011;34424;52.234;6.500;2023-03-01T04:01:54;15.63;;;10.87;;
48627;SDS011;34424;52.234;6.500;2023-03-01T04:06:57;15.20;;;10.48;;
48627;SDS011;34424;52.234;6.500;2023-03-01T04:11:59;15.40;;;10.30;;
48627;SDS011;34424;52.234;6.500;2023-03-01T04:17:03;18.85;;;11.27;;
48627;SDS011;34424;52.234;6.500;2023-03-01T04:22:06;17.40;;;11.30;;
48627;SDS011;34424;52.234;6.500;2023-03-01T04:27:10;18.00;;;13.27;;
48627;SDS011;34424;52.234;6.500;2023-03-01T04:32:15;16.80;;;11.43;;
48627;SDS011;34424;52.234;6.500;2023-03-01T04:37:19;16.88;;;11.90;;
48627;SDS011;34424;52.234;6.500;2023-03-01T04:42:21;16.63;;;10.50;;
48627;SDS011;34424;52.234;6.500;2023-03-01T04:47:25;19.17;;;11.50;;
48627;SDS011;34424;52.234;6.500;2023-03-01T04:52:28;15.15;;;10.77;;
48627;SDS011;34424;52.234;6.500;2023-03-01T04:57:30;19.03;;;11.17;;
48627;SDS011;34424;52.234;6.500;2023-03-01T05:02:35;17.40;;;12.00;;
48627;SDS011;34424;52.234;6.500;2023-03-01T05:07:37;20.85;;;12.32;;
48627;SDS011;34424;52.234;6.500;2023-03-01T05:12:40;17.40;;;11.73;;
48627;SDS011;34424;52.234;6.500;2023-03-01T05:17:44;16.83;;;10.93;;
48627;SDS011;34424;52.234;6.500;2023-03-01T05:22:47;18.88;;;12.15;;
48627;SDS011;34424;52.234;6.500;2023-03-01T05:27:50;22.43;;;13.57;;
48627;SDS011;34424;52.234;6.500;2023-03-01T05:32:54;25.48;;;13.35;;
48627;SDS011;34424;52.234;6.500;2023-03-01T05:37:57;18.98;;;12.57;;
48627;SDS011;34424;52.234;6.500;2023-03-01T05:43:00;19.00;;;12.60;;
48627;SDS011;34424;52.234;6.500;2023-03-01T05:48:04;19.13;;;12.60;;
48627;SDS011;34424;52.234;6.500;2023-03-01T05:53:09;18.83;;;12.48;;
48627;SDS011;34424;52.234;6.500;2023-03-01T05:58:15;22.02;;;13.95;;
48627;SDS011;34424;52.234;6.500;2023-03-01T06:03:20;25.10;;;14.68;;
48627;SDS011;34424;52.234;6.500;2023-03-01T06:08:23;26.10;;;15.02;;
48627;SDS011;34424;52.234;6.500;2023-03-01T06:13:28;22.60;;;15.35;;
48627;SDS011;34424;52.234;6.500;2023-03-01T06:18:32;21.50;;;14.80;;
48627;SDS011;34424;52.234;6.500;2023-03-01T06:23:35;28.08;;;16.30;;
48627;SDS011;34424;52.234;6.500;2023-03-01T06:28:37;20.55;;;14.10;;
48627;SDS011;34424;52.234;6.500;2023-03-01T06:33:41;22.13;;;15.27;;
48627;SDS011;34424;52.234;6.500;2023-03-01T06:38:45;24.52;;;17.63;;
48627;SDS011;34424;52.234;6.500;2023-03-01T06:43:48;22.17;;;16.80;;
48627;SDS011;34424;52.234;6.500;2023-03-01T06:48:52;24.97;;;16.10;;
48627;SDS011;34424;52.234;6.500;2023-03-01T06:53:55;25.73;;;16.00;;
48627;SDS011;34424;52.234;6.500;2023-03-01T06:58:58;28.30;;;19.50;;
48627;SDS011;34424;52.234;6.500;2023-03-01T07:04:02;29.05;;;19.60;;
48627;SDS011;34424;52.234;6.500;2023-03-01T07:09:05;28.60;;;18.48;;
48627;SDS011;34424;52.234;6.500;2023-03-01T07:14:08;31.37;;;19.93;;
48627;SDS011;34424;52.234;6.500;2023-03-01T07:19:12;31.73;;;19.63;;
48627;SDS011;34424;52.234;6.500;2023-03-01T07:24:15;24.48;;;18.20;;
48627;SDS011;34424;52.234;6.500;2023-03-01T07:34:22;18.75;;;14.27;;
48627;SDS011;34424;52.234;6.500;2023-03-01T07:39:24;18.88;;;12.90;;
48627;SDS011;34424;52.234;6.500;2023-03-01T07:44:27;15.50;;;11.13;;
48627;SDS011;34424;52.234;6.500;2023-03-01T07:49:31;11.93;;;9.63;;
48627;SDS011;34424;52.234;6.500;2023-03-01T07:54:34;12.20;;;8.90;;
48627;SDS011;34424;52.234;6.500;2023-03-01T07:59:37;9.03;;;7.43;;
48627;SDS011;34424;52.234;6.500;2023-03-01T08:04:41;9.82;;;7.68;;
48627;SDS011;34424;52.234;6.500;2023-03-01T08:09:43;9.18;;;7.55;;
48627;SDS011;34424;52.234;6.500;2023-03-01T08:14:46;7.90;;;7.10;;
48627;SDS011;34424;52.234;6.500;2023-03-01T08:19:50;10.23;;;7.47;;
48627;SDS011;34424;52.234;6.500;2023-03-01T08:24:53;9.50;;;6.38;;
48627;SDS011;34424;52.234;6.500;2023-03-01T08:29:56;9.27;;;6.88;;
48627;SDS011;34424;52.234;6.500;2023-03-01T08:35:00;8.00;;;6.70;;
48627;SDS011;34424;52.234;6.500;2023-03-01T08:40:03;6.30;;;5.70;;
48627;SDS011;34424;52.234;6.500;2023-03-01T08:45:09;6.93;;;6.28;;
48627;SDS011;34424;52.234;6.500;2023-03-01T08:50:14;7.18;;;5.75;;
48627;SDS011;34424;52.234;6.500;2023-03-01T08:55:17;8.85;;;7.22;;
48627;SDS011;34424;52.234;6.500;2023-03-01T09:00:20;8.20;;;6.27;;
48627;SDS011;34424;52.234;6.500;2023-03-01T09:05:25;7.45;;;6.65;;
48627;SDS011;34424;52.234;6.500;2023-03-01T09:10:28;6.43;;;5.72;;
48627;SDS011;34424;52.234;6.500;2023-03-01T09:15:31;6.20;;;5.60;;
48627;SDS011;34424;52.234;6.500;2023-03-01T09:20:35;6.05;;;5.45;;
48627;SDS011;34424;52.234;6.500;2023-03-01T09:25:38;12.23;;;5.68;;
48627;SDS011;34424;52.234;6.500;2023-03-01T09:30:42;5.37;;;4.67;;
48627;SDS011;34424;52.234;6.500;2023-03-01T09:35:46;5.63;;;5.10;;
48627;SDS011;34424;52.234;6.500;2023-03-01T09:40:49;6.32;;;5.22;;
48627;SDS011;34424;52.234;6.500;2023-03-01T09:45:52;7.10;;;4.97;;
48627;SDS011;34424;52.234;6.500;2023-03-01T09:50:59;8.20;;;5.13;;
48627;SDS011;34424;52.234;6.500;2023-03-01T09:56:11;6.70;;;4.57;;
48627;SDS011;34424;52.234;6.500;2023-03-01T10:01:27;5.90;;;3.88;;
48627;SDS011;34424;52.234;6.500;2023-03-01T10:06:37;5.55;;;4.68;;
48627;SDS011;34424;52.234;6.500;2023-03-01T10:11:44;6.95;;;4.93;;
48627;SDS011;34424;52.234;6.500;2023-03-01T10:16:51;4.55;;;3.88;;
48627;SDS011;34424;52.234;6.500;2023-03-01T10:22:02;5.95;;;4.10;;
48627;SDS011;34424;52.234;6.500;2023-03-01T10:27:07;6.50;;;3.88;;
48627;SDS011;34424;52.234;6.500;2023-03-01T10:32:14;5.20;;;4.10;;
48627;SDS011;34424;52.234;6.500;2023-03-01T10:37:21;6.78;;;4.60;;
48627;SDS011;34424;52.234;6.500;2023-03-01T10:42:27;5.30;;;3.90;;
48627;SDS011;34424;52.234;6.500;2023-03-01T10:47:31;5.97;;;4.25;;
48627;SDS011;34424;52.234;6.500;2023-03-01T10:52:36;6.23;;;4.13;;
48627;SDS011;34424;52.234;6.500;2023-03-01T10:57:39;4.68;;;4.18;;
48627;SDS011;34424;52.234;6.500;2023-03-01T11:02:43;6.22;;;4.10;;
48627;SDS011;34424;52.234;6.500;2023-03-01T11:07:50;4.17;;;3.77;;
48627;SDS011;34424;52.234;6.500;2023-03-01T11:13:05;5.32;;;3.60;;
48627;SDS011;34424;52.234;6.500;2023-03-01T11:18:18;5.85;;;4.32;;
48627;SDS011;34424;52.234;6.500;2023-03-01T11:23:32;4.38;;;3.80;;
48627;SDS011;34424;52.234;6.500;2023-03-01T11:28:36;5.88;;;4.13;;
48627;SDS011;34424;52.234;6.500;2023-03-01T11:33:43;5.85;;;4.13;;
48627;SDS011;34424;52.234;6.500;2023-03-01T11:38:51;4.25;;;3.75;;
48627;SDS011;34424;52.234;6.500;2023-03-01T11:43:57;10.63;;;6.88;;
48627;SDS011;34424;52.234;6.500;2023-03-01T11:49:06;12.32;;;7.30;;
48627;SDS011;34424;52.234;6.500;2023-03-01T11:54:20;4.32;;;3.92;;
48627;SDS011;34424;52.234;6.500;2023-03-01T11:59:39;4.97;;;3.90;;
48627;SDS011;34424;52.234;6.500;2023-03-01T12:05:00;5.68;;;4.30;;
48627;SDS011;34424;52.234;6.500;2023-03-01T12:10:23;6.47;;;3.70;;
48627;SDS011;34424;52.234;6.500;2023-03-01T12:15:33;6.72;;;3.75;;
48627;SDS011;34424;52.234;6.500;2023-03-01T12:20:49;6.05;;;4.20;;
48627;SDS011;34424;52.234;6.500;2023-03-01T12:26:04;4.82;;;4.07;;
48627;SDS011;34424;52.234;6.500;2023-03-01T12:36:46;6.53;;;4.13;;
48627;SDS011;34424;52.234;6.500;2023-03-01T12:42:03;4.72;;;4.05;;
48627;SDS011;34424;52.234;6.500;2023-03-01T12:47:18;4.78;;;3.58;;
48627;SDS011;34424;52.234;6.500;2023-03-01T12:52:31;5.75;;;3.75;;
48627;SDS011;34424;52.234;6.500;2023-03-01T12:57:41;3.92;;;3.40;;
48627;SDS011;34424;52.234;6.500;2023-03-01T13:02:49;6.95;;;4.10;;
48627;SDS011;34424;52.234;6.500;2023-03-01T13:07:58;4.90;;;3.60;;
48627;SDS011;34424;52.234;6.500;2023-03-01T13:13:13;2.95;;;2.75;;
48627;SDS011;34424;52.234;6.500;2023-03-01T13:18:28;3.90;;;3.47;;
48627;SDS011;34424;52.234;6.500;2023-03-01T13:23:35;3.30;;;3.00;;
48627;SDS011;34424;52.234;6.500;2023-03-01T13:28:48;5.68;;;3.58;;
48627;SDS011;34424;52.234;6.500;2023-03-01T13:33:52;4.38;;;3.10;;
48627;SDS011;34424;52.234;6.500;2023-03-01T13:44:00;3.97;;;3.17;;
48627;SDS011;34424;52.234;6.500;2023-03-01T13:49:03;5.53;;;2.97;;
48627;SDS011;34424;52.234;6.500;2023-03-01T13:54:09;4.40;;;2.75;;
48627;SDS011;34424;52.234;6.500;2023-03-01T13:59:17;3.83;;;2.97;;
48627;SDS011;34424;52.234;6.500;2023-03-01T14:04:21;3.75;;;2.67;;
48627;SDS011;34424;52.234;6.500;2023-03-01T14:09:27;2.97;;;2.40;;
48627;SDS011;34424;52.234;6.500;2023-03-01T14:19:58;3.03;;;2.67;;
48627;SDS011;34424;52.234;6.500;2023-03-01T14:25:05;3.92;;;2.42;;
48627;SDS011;34424;52.234;6.500;2023-03-01T14:30:21;3.70;;;2.80;;
48627;SDS011;34424;52.234;6.500;2023-03-01T14:35:27;5.53;;;2.97;;
48627;SDS011;34424;52.234;6.500;2023-03-01T14:40:32;2.97;;;2.45;;
48627;SDS011;34424;52.234;6.500;2023-03-01T14:45:38;3.90;;;2.95;;
48627;SDS011;34424;52.234;6.500;2023-03-01T14:50:42;3.45;;;3.00;;
48627;SDS011;34424;52.234;6.500;2023-03-01T14:55:47;4.78;;;3.00;;
48627;SDS011;34424;52.234;6.500;2023-03-01T15:00:55;5.28;;;3.53;;
48627;SDS011;34424;52.234;6.500;2023-03-01T15:06:00;3.38;;;3.08;;
48627;SDS011;34424;52.234;6.500;2023-03-01T15:11:05;6.68;;;3.75;;
48627;SDS011;34424;52.234;6.500;2023-03-01T15:16:21;5.80;;;3.40;;
48627;SDS011;34424;52.234;6.500;2023-03-01T15:21:26;5.53;;;3.70;;
48627;SDS011;34424;52.234;6.500;2023-03-01T15:26:33;3.72;;;3.03;;
48627;SDS011;34424;52.234;6.500;2023-03-01T15:31:41;4.43;;;3.75;;
48627;SDS011;34424;52.234;6.500;2023-03-01T15:36:44;4.55;;;3.60;;
48627;SDS011;34424;52.234;6.500;2023-03-01T15:41:51;4.55;;;3.15;;
48627;SDS011;34424;52.234;6.500;2023-03-01T15:46:55;4.90;;;3.77;;
48627;SDS011;34424;52.234;6.500;2023-03-01T15:51:58;5.85;;;4.15;;
48627;SDS011;34424;52.234;6.500;2023-03-01T15:57:04;4.38;;;3.47;;
48627;SDS011;34424;52.234;6.500;2023-03-01T16:02:09;5.13;;;4.07;;
48627;SDS011;34424;52.234;6.500;2023-03-01T16:07:13;5.95;;;4.00;;
48627;SDS011;34424;52.234;6.500;2023-03-01T16:12:16;5.35;;;3.90;;
48627;SDS011;34424;52.234;6.500;2023-03-01T16:17:23;5.15;;;3.90;;
48627;SDS011;34424;52.234;6.500;2023-03-01T16:22:27;6.93;;;4.13;;
48627;SDS011;34424;52.234;6.500;2023-03-01T16:27:30;5.25;;;4.15;;
48627;SDS011;34424;52.234;6.500;2023-03-01T16:32:34;7.40;;;4.93;;
48627;SDS011;34424;52.234;6.500;2023-03-01T16:37:40;5.18;;;4.43;;
48627;SDS011;34424;52.234;6.500;2023-03-01T16:42:43;6.63;;;4.07;;
48627;SDS011;34424;52.234;6.500;2023-03-01T16:47:47;6.60;;;5.10;;
48627;SDS011;34424;52.234;6.500;2023-03-01T16:52:50;7.32;;;5.15;;
48627;SDS011;34424;52.234;6.500;2023-03-01T16:57:52;7.07;;;5.43;;
48627;SDS011;34424;52.234;6.500;2023-03-01T17:02:56;9.27;;;5.95;;
48627;SDS011;34424;52.234;6.500;2023-03-01T17:07:59;7.15;;;4.63;;
48627;SDS011;34424;52.234;6.500;2023-03-01T17:13:02;9.02;;;5.10;;
48627;SDS011;34424;52.234;6.500;2023-03-01T17:18:06;9.47;;;6.77;;
48627;SDS011;34424;52.234;6.500;2023-03-01T17:23:09;12.07;;;8.20;;
48627;SDS011;34424;52.234;6.500;2023-03-01T17:28:12;8.20;;;5.57;;
48627;SDS011;34424;52.234;6.500;2023-03-01T17:33:17;6.53;;;5.72;;
48627;SDS011;34424;52.234;6.500;2023-03-01T17:38:20;6.50;;;5.65;;
48627;SDS011;34424;52.234;6.500;2023-03-01T17:43:22;9.70;;;6.72;;
48627;SDS011;34424;52.234;6.500;2023-03-01T17:48:26;6.82;;;5.43;;
48627;SDS011;34424;52.234;6.500;2023-03-01T17:53:29;9.45;;;6.07;;
48627;SDS011;34424;52.234;6.500;2023-03-01T17:58:32;6.28;;;5.40;;
48627;SDS011;34424;52.234;6.500;2023-03-01T18:03:36;8.00;;;5.68;;
48627;SDS011;34424;52.234;6.500;2023-03-01T18:08:39;9.15;;;6.05;;
48627;SDS011;34424;52.234;6.500;2023-03-01T18:13:42;7.50;;;5.95;;
48627;SDS011;34424;52.234;6.500;2023-03-01T18:18:47;10.52;;;6.70;;
48627;SDS011;34424;52.234;6.500;2023-03-01T18:23:54;8.70;;;6.03;;
48627;SDS011;34424;52.234;6.500;2023-03-01T18:28:57;6.17;;;5.40;;
48627;SDS011;34424;52.234;6.500;2023-03-01T18:34:02;8.68;;;6.10;;
48627;SDS011;34424;52.234;6.500;2023-03-01T18:39:06;6.85;;;5.32;;
48627;SDS011;34424;52.234;6.500;2023-03-01T18:44:09;8.60;;;5.50;;
48627;SDS011;34424;52.234;6.500;2023-03-01T18:49:13;10.05;;;6.57;;
48627;SDS011;34424;52.234;6.500;2023-03-01T18:54:16;7.80;;;5.60;;
48627;SDS011;34424;52.234;6.500;2023-03-01T18:59:19;8.37;;;6.03;;
48627;SDS011;34424;52.234;6.500;2023-03-01T19:04:23;10.93;;;6.82;;
48627;SDS011;34424;52.234;6.500;2023-03-01T19:09:27;8.90;;;6.55;;
48627;SDS011;34424;52.234;6.500;2023-03-01T19:14:30;8.47;;;6.37;;
48627;SDS011;34424;52.234;6.500;2023-03-01T19:19:34;10.43;;;7.10;;
48627;SDS011;34424;52.234;6.500;2023-03-01T19:24:37;10.32;;;7.75;;
48627;SDS011;34424;52.234;6.500;2023-03-01T19:29:39;11.90;;;7.30;;
48627;SDS011;34424;52.234;6.500;2023-03-01T19:34:43;11.20;;;7.60;;
48627;SDS011;34424;52.234;6.500;2023-03-01T19:39:46;10.63;;;7.82;;
48627;SDS011;34424;52.234;6.500;2023-03-01T19:44:50;11.23;;;7.33;;
48627;SDS011;34424;52.234;6.500;2023-03-01T19:49:54;10.48;;;7.82;;
48627;SDS011;34424;52.234;6.500;2023-03-01T19:54:57;11.70;;;8.82;;
48627;SDS011;34424;52.234;6.500;2023-03-01T20:00:09;12.30;;;7.93;;
48627;SDS011;34424;52.234;6.500;2023-03-01T20:05:14;12.63;;;8.43;;
48627;SDS011;34424;52.234;6.500;2023-03-01T20:10:17;13.57;;;8.38;;
48627;SDS011;34424;52.234;6.500;2023-03-01T20:15:20;8.77;;;7.73;;
48627;SDS011;34424;52.234;6.500;2023-03-01T20:20:24;11.18;;;8.65;;
48627;SDS011;34424;52.234;6.500;2023-03-01T20:25:26;14.38;;;9.90;;
48627;SDS011;34424;52.234;6.500;2023-03-01T20:30:29;19.77;;;15.55;;
48627;SDS011;34424;52.234;6.500;2023-03-01T20:35:33;16.17;;;10.17;;
48627;SDS011;34424;52.234;6.500;2023-03-01T20:40:36;16.27;;;10.90;;
48627;SDS011;34424;52.234;6.500;2023-03-01T20:45:39;15.03;;;11.80;;
48627;SDS011;34424;52.234;6.500;2023-03-01T20:50:43;14.47;;;10.07;;
48627;SDS011;34424;52.234;6.500;2023-03-01T20:55:46;13.55;;;10.10;;
48627;SDS011;34424;52.234;6.500;2023-03-01T21:00:49;14.23;;;10.20;;
48627;SDS011;34424;52.234;6.500;2023-03-01T21:05:55;16.13;;;11.60;;
48627;SDS011;34424;52.234;6.500;2023-03-01T21:10:58;14.32;;;10.23;;
48627;SDS011;34424;52.234;6.500;2023-03-01T21:16:01;16.75;;;11.13;;
48627;SDS011;34424;52.234;6.500;2023-03-01T21:21:07;16.55;;;11.10;;
48627;SDS011;34424;52.234;6.500;2023-03-01T21:26:11;18.83;;;11.57;;
48627;SDS011;34424;52.234;6.500;2023-03-01T21:31:16;17.77;;;12.82;;
48627;SDS011;34424;52.234;6.500;2023-03-01T21:36:22;20.17;;;13.77;;
48627;SDS011;34424;52.234;6.500;2023-03-01T21:41:26;18.10;;;12.93;;
48627;SDS011;34424;52.234;6.500;2023-03-01T21:46:31;20.70;;;14.48;;
48627;SDS011;34424;52.234;6.500;2023-03-01T21:51:38;21.98;;;14.25;;
48627;SDS011;34424;52.234;6.500;2023-03-01T21:56:40;20.25;;;13.80;;
48627;SDS011;34424;52.234;6.500;2023-03-01T22:06:48;31.02;;;16.73;;
48627;SDS011;34424;52.234;6.500;2023-03-01T22:11:54;29.90;;;17.70;;
48627;SDS011;34424;52.234;6.500;2023-03-01T22:17:02;33.92;;;21.02;;
48627;SDS011;34424;52.234;6.500;2023-03-01T22:22:06;33.93;;;19.97;;
48627;SDS011;34424;52.234;6.500;2023-03-01T22:27:09;36.17;;;23.08;;
48627;SDS011;34424;52.234;6.500;2023-03-01T22:32:12;43.27;;;25.93;;
48627;SDS011;34424;52.234;6.500;2023-03-01T22:37:16;51.07;;;29.07;;
48627;SDS011;34424;52.234;6.500;2023-03-01T22:42:19;49.20;;;28.63;;
48627;SDS011;34424;52.234;6.500;2023-03-01T22:47:21;49.67;;;28.42;;
48627;SDS011;34424;52.234;6.500;2023-03-01T22:52:25;60.92;;;32.67;;
48627;SDS011;34424;52.234;6.500;2023-03-01T22:57:28;62.28;;;33.67;;
48627;SDS011;34424;52.234;6.500;2023-03-01T23:02:31;66.37;;;36.13;;
48627;SDS011;34424;52.234;6.500;2023-03-01T23:07:36;77.22;;;37.78;;
48627;SDS011;34424;52.234;6.500;2023-03-01T23:12:39;76.20;;;41.33;;
48627;SDS011;34424;52.234;6.500;2023-03-01T23:17:42;89.97;;;45.83;;
48627;SDS011;34424;52.234;6.500;2023-03-01T23:22:46;98.35;;;47.88;;
48627;SDS011;34424;52.234;6.500;2023-03-01T23:27:49;112.20;;;52.53;;
48627;SDS011;34424;52.234;6.500;2023-03-01T23:32:51;124.97;;;55.08;;
48627;SDS011;34424;52.234;6.500;2023-03-01T23:37:55;127.38;;;57.83;;
48627;SDS011;34424;52.234;6.500;2023-03-01T23:42:58;127.97;;;56.15;;
48627;SDS011;34424;52.234;6.500;2023-03-01T23:48:01;137.80;;;60.67;;
48627;SDS011;34424;52.234;6.500;2023-03-01T23:53:05;142.27;;;60.57;;
48627;SDS011;34424;52.234;6.500;2023-03-01T23:58:08;159.38;;;60.95;;
